Time;durP1;ratioP1;P1;durP2;ratioP2;P2;SDS_P1;SDS_P2;PMS_P1;PMS_P2;Temp;Humidity;BMP_temperature;BMP_pressure;BME280_temperature;BME280_humidity;BME280_pressure;Samples;Min_cycle;Max_cycle;Signal;HPM_P1;HPM_P2
2022/05/10 00:00:16;;;;;;;2.50;2.30;;;22.80;51.80;;;;;;5058471;28;20213;-89
2022/05/10 00:02:45;;;;;;;2.73;2.20;;;22.80;51.80;;;;;;5075556;28;20167;-89
2022/05/10 00:05:11;;;;;;;1.97;1.77;;;22.80;51.80;;;;;;5058299;28;20244;-88
2022/05/10 00:07:38;;;;;;;2.07;1.93;;;22.80;51.80;;;;;;5059341;28;20199;-89
2022/05/10 00:10:09;;;;;;;2.40;2.20;;;22.80;51.90;;;;;;5058472;28;20266;-91
2022/05/10 00:12:38;;;;;;;2.40;2.20;;;22.80;51.90;;;;;;5058058;28;20183;-91
2022/05/10 00:15:04;;;;;;;2.20;2.00;;;22.70;51.80;;;;;;5058148;28;20408;-91
2022/05/10 00:17:39;;;;;;;2.33;2.13;;;22.70;51.80;;;;;;5057416;28;20454;-91
2022/05/10 00:20:08;;;;;;;2.40;2.20;;;22.70;51.80;;;;;;5058406;28;20246;-91
2022/05/10 00:22:34;;;;;;;2.20;2.00;;;22.70;51.80;;;;;;5075486;28;20214;-91
2022/05/10 00:25:00;;;;;;;2.57;2.37;;;22.70;51.80;;;;;;5057852;28;20208;-91
2022/05/10 00:27:26;;;;;;;2.37;2.00;;;22.70;51.80;;;;;;5057523;28;20171;-91
2022/05/10 00:29:52;;;;;;;2.00;1.90;;;22.70;51.80;;;;;;5057935;28;20213;-91
2022/05/10 00:32:18;;;;;;;2.50;2.30;;;22.70;51.80;;;;;;5058248;28;20164;-91
2022/05/10 00:34:44;;;;;;;2.17;2.03;;;22.60;51.80;;;;;;5057252;28;20171;-91
2022/05/10 00:37:18;;;;;;;2.47;2.27;;;22.60;51.80;;;;;;5057045;28;20241;-91
2022/05/10 00:39:43;;;;;;;2.20;2.00;;;22.60;51.80;;;;;;5058273;28;20474;-91
2022/05/10 00:42:32;;;;;;;2.17;1.93;;;22.60;51.80;;;;;;5058227;28;20203;-91
2022/05/10 00:45:03;;;;;;;2.20;2.00;;;22.60;51.80;;;;;;5058739;28;20172;-89
2022/05/10 00:47:40;;;;;;;1.90;1.80;;;22.60;51.80;;;;;;5058182;28;20174;-89
2022/05/10 00:50:30;;;;;;;2.20;2.00;;;22.60;51.80;;;;;;5057947;28;20168;-89
2022/05/10 00:53:30;;;;;;;2.20;2.00;;;22.60;51.90;;;;;;5058073;28;20172;-89
2022/05/10 00:55:59;;;;;;;2.20;2.00;;;22.50;51.80;;;;;;5057795;28;20170;-89
2022/05/10 00:58:41;;;;;;;1.90;1.80;;;22.50;51.80;;;;;;5056987;28;20185;-89
2022/05/10 01:01:11;;;;;;;2.47;2.07;;;22.50;51.80;;;;;;5057599;28;20487;-89
2022/05/10 01:03:44;;;;;;;1.90;1.80;;;22.50;51.80;;;;;;5056212;28;20170;-90
2022/05/10 01:06:22;;;;;;;2.37;2.17;;;22.50;51.80;;;;;;5073980;28;20183;-89
2022/05/10 01:09:17;;;;;;;2.23;2.03;;;22.50;51.80;;;;;;5056709;28;20207;-90
2022/05/10 01:11:51;;;;;;;2.30;2.10;;;22.50;51.80;;;;;;5035792;28;20192;-89
2022/05/10 01:14:17;;;;;;;3.17;2.40;;;22.50;51.80;;;;;;5056398;28;20199;-89
2022/05/10 01:16:42;;;;;;;2.17;2.03;;;22.40;51.70;;;;;;5057004;28;20291;-89
2022/05/10 01:19:08;;;;;;;2.07;1.93;;;22.40;51.70;;;;;;5057108;28;20631;-89
2022/05/10 01:22:10;;;;;;;2.63;2.10;;;22.40;51.70;;;;;;5057464;28;20171;-88
2022/05/10 01:24:50;;;;;;;2.10;2.00;;;22.40;51.70;;;;;;5007935;28;20225;-88
2022/05/10 01:27:40;;;;;;;1.83;1.73;;;22.40;51.80;;;;;;5057723;28;20199;-88
2022/05/10 01:30:16;;;;;;;2.03;1.80;;;22.40;51.70;;;;;;5057994;28;20168;-88
2022/05/10 01:35:43;;;;;;;2.63;2.10;;;22.40;51.70;;;;;;5074339;28;20183;-89
2022/05/10 01:38:48;;;;;;;1.90;1.80;;;22.40;51.70;;;;;;5057817;28;20174;-88
2022/05/10 01:41:32;;;;;;;2.03;1.93;;;22.30;51.70;;;;;;5043972;28;20210;-88
2022/05/10 01:44:09;;;;;;;2.10;2.00;;;22.30;51.70;;;;;;5056710;28;20175;-88
2022/05/10 01:46:35;;;;;;;2.10;1.93;;;22.30;51.70;;;;;;5057574;28;20572;-88
2022/05/10 01:49:16;;;;;;;2.20;2.00;;;22.30;51.70;;;;;;5059689;28;20267;-88
2022/05/10 01:51:49;;;;;;;2.37;1.90;;;22.30;51.70;;;;;;5060097;28;20190;-89
2022/05/10 01:54:53;;;;;;;2.37;2.17;;;22.30;51.70;;;;;;5060232;28;20187;-89
2022/05/10 01:57:19;;;;;;;2.10;1.90;;;22.30;51.70;;;;;;5031198;28;20187;-89
2022/05/10 01:59:53;;;;;;;2.30;2.10;;;22.30;51.70;;;;;;5060562;28;20197;-89
2022/05/10 02:02:23;;;;;;;2.03;1.90;;;22.30;51.70;;;;;;5060153;28;20257;-89
2022/05/10 02:04:54;;;;;;;2.10;2.00;;;22.30;51.70;;;;;;5061362;28;20163;-89
2022/05/10 02:07:23;;;;;;;2.50;2.30;;;22.30;51.70;;;;;;5076422;28;20160;-90
2022/05/10 02:09:58;;;;;;;1.90;1.80;;;22.30;51.70;;;;;;5060948;28;20187;-89
2022/05/10 02:12:38;;;;;;;2.23;2.03;;;22.30;51.80;;;;;;5060966;28;20456;-89
2022/05/10 02:15:34;;;;;;;2.37;2.13;;;22.20;51.60;;;;;;5060524;28;20206;-90
2022/05/10 02:18:18;;;;;;;1.87;1.77;;;22.20;51.70;;;;;;5060275;28;20179;-89
2022/05/10 02:20:53;;;;;;;2.10;2.00;;;22.20;51.70;;;;;;5060584;28;20171;-89
2022/05/10 02:23:24;;;;;;;2.20;2.00;;;22.20;51.70;;;;;;5060381;28;20185;-88
2022/05/10 02:26:00;;;;;;;2.20;2.00;;;22.20;51.90;;;;;;5060801;28;20271;-89
2022/05/10 02:28:35;;;;;;;2.00;1.90;;;22.20;51.70;;;;;;5059340;28;20211;-89
2022/05/10 02:31:10;;;;;;;2.30;2.10;;;22.20;51.80;;;;;;5060761;28;20612;-88
2022/05/10 02:33:37;;;;;;;2.17;1.97;;;22.20;51.70;;;;;;5060350;28;20258;-88
2022/05/10 02:36:03;;;;;;;1.90;1.80;;;22.20;51.70;;;;;;5060464;28;20168;-89
2022/05/10 02:38:32;;;;;;;2.00;1.80;;;22.10;51.60;;;;;;5059805;28;20175;-89
2022/05/10 02:41:02;;;;;;;2.10;1.90;;;22.10;51.70;;;;;;5059969;28;20172;-89
2022/05/10 02:43:28;;;;;;;1.83;1.73;;;22.10;51.70;;;;;;5060206;28;20179;-89
2022/05/10 02:45:56;;;;;;;2.13;2.03;;;22.10;51.70;;;;;;5060218;28;20171;-89
2022/05/10 02:48:32;;;;;;;2.10;1.90;;;22.10;51.70;;;;;;5059661;28;20205;-88
2022/05/10 02:50:58;;;;;;;2.20;2.03;;;22.10;51.70;;;;;;5060677;28;20187;-88
2022/05/10 02:53:25;;;;;;;1.90;1.80;;;22.10;51.70;;;;;;5076623;28;20174;-89
2022/05/10 02:55:57;;;;;;;1.83;1.73;;;22.10;51.70;;;;;;5059453;28;20207;-88
2022/05/10 02:58:31;;;;;;;2.00;1.90;;;22.00;51.70;;;;;;5059408;28;20210;-89
2022/05/10 03:01:14;;;;;;;1.87;1.77;;;22.00;51.70;;;;;;5059311;28;20232;-88
2022/05/10 03:03:40;;;;;;;2.07;1.87;;;22.00;51.70;;;;;;5059597;28;20171;-88
2022/05/10 03:06:07;;;;;;;2.30;2.10;;;22.00;51.70;;;;;;5059762;28;20681;-88
2022/05/10 03:08:32;;;;;;;2.00;1.80;;;22.00;51.70;;;;;;5059399;28;20633;-88
2022/05/10 03:10:58;;;;;;;2.20;2.00;;;22.00;51.70;;;;;;5059376;28;20562;-89
2022/05/10 03:13:24;;;;;;;1.90;1.80;;;22.00;51.80;;;;;;5059062;28;20563;-88
2022/05/10 03:15:50;;;;;;;2.20;2.00;;;22.00;51.70;;;;;;5058843;28;20237;-88
2022/05/10 03:18:16;;;;;;;1.90;1.80;;;22.00;51.70;;;;;;5059026;28;20172;-88
2022/05/10 03:20:41;;;;;;;2.30;2.10;;;22.00;51.70;;;;;;5059074;28;20179;-88
2022/05/10 03:23:07;;;;;;;1.90;1.80;;;21.90;51.70;;;;;;5058762;28;20175;-88
2022/05/10 03:25:33;;;;;;;2.80;2.00;;;21.90;51.70;;;;;;5057479;28;20562;-88
2022/05/10 03:28:00;;;;;;;1.93;1.83;;;21.90;51.70;;;;;;5058096;28;20223;-88
2022/05/10 03:30:30;;;;;;;1.80;1.70;;;21.90;51.70;;;;;;5058628;28;20202;-91
2022/05/10 03:32:56;;;;;;;2.53;1.83;;;21.90;51.70;;;;;;5058442;28;20214;-91
2022/05/10 03:35:23;;;;;;;1.90;1.80;;;21.90;51.70;;;;;;5075431;28;20168;-91
2022/05/10 03:37:49;;;;;;;1.87;1.77;;;21.90;51.60;;;;;;5058298;28;20181;-91
2022/05/10 03:40:14;;;;;;;1.80;1.70;;;21.90;51.60;;;;;;5058204;28;20186;-91
2022/05/10 03:42:48;;;;;;;2.67;1.80;;;21.90;51.60;;;;;;5057431;28;20233;-91
2022/05/10 03:45:15;;;;;;;1.87;1.73;;;21.90;51.60;;;;;;5057237;28;20172;-91
2022/05/10 03:47:42;;;;;;;1.90;1.70;;;21.90;51.60;;;;;;5057726;28;20255;-91
2022/05/10 03:50:09;;;;;;;1.97;1.87;;;21.90;51.70;;;;;;5057896;28;20283;-91
2022/05/10 03:52:37;;;;;;;1.90;1.80;;;21.90;51.60;;;;;;5058445;28;20172;-90
2022/05/10 03:55:05;;;;;;;1.93;1.80;;;21.90;51.70;;;;;;5057403;28;20164;-91
2022/05/10 03:57:31;;;;;;;1.80;1.70;;;21.90;51.70;;;;;;5058111;28;20173;-90
2022/05/10 03:59:57;;;;;;;1.80;1.70;;;21.90;51.60;;;;;;5057314;28;20186;-90
2022/05/10 04:02:23;;;;;;;1.93;1.80;;;21.90;51.60;;;;;;5074769;28;20160;-88
2022/05/10 04:04:48;;;;;;;2.13;1.93;;;21.80;51.60;;;;;;5057018;28;20174;-88
2022/05/10 04:07:15;;;;;;;2.23;2.03;;;21.80;51.60;;;;;;5056853;28;20240;-89
2022/05/10 04:09:40;;;;;;;1.77;1.67;;;21.80;51.60;;;;;;5056449;28;20234;-88
2022/05/10 04:12:07;;;;;;;1.80;1.70;;;21.80;51.60;;;;;;5055784;28;20264;-88
2022/05/10 04:14:32;;;;;;;2.00;1.80;;;21.80;51.60;;;;;;5056610;28;20179;-88
2022/05/10 04:16:58;;;;;;;1.80;1.70;;;21.80;51.60;;;;;;5056367;28;20179;-88
2022/05/10 04:19:24;;;;;;;1.80;1.70;;;21.80;51.60;;;;;;5055559;28;20178;-88
2022/05/10 04:21:50;;;;;;;2.10;1.90;;;21.80;51.60;;;;;;5056213;28;20254;-88
2022/05/10 04:24:16;;;;;;;2.07;1.90;;;21.80;51.50;;;;;;5056405;28;20190;-88
2022/05/10 04:26:43;;;;;;;1.90;1.80;;;21.80;51.50;;;;;;5055419;28;20185;-88
2022/05/10 04:29:12;;;;;;;1.83;1.73;;;21.80;51.50;;;;;;5056097;28;20210;-88
2022/05/10 04:31:38;;;;;;;2.20;2.00;;;21.80;51.50;;;;;;5056585;28;20171;-88
2022/05/10 04:34:03;;;;;;;1.80;1.70;;;21.80;51.50;;;;;;5055338;28;20175;-88
2022/05/10 04:36:29;;;;;;;1.97;1.73;;;21.80;51.50;;;;;;5056324;28;20176;-89
2022/05/10 04:38:55;;;;;;;2.13;1.93;;;21.80;51.50;;;;;;5055565;28;20550;-88
2022/05/10 04:41:27;;;;;;;2.13;1.97;;;21.80;51.40;;;;;;5055546;28;20179;-88
2022/05/10 04:43:59;;;;;;;1.93;1.83;;;21.80;51.40;;;;;;5056319;28;20440;-88
2022/05/10 04:46:27;;;;;;;1.90;1.80;;;21.80;51.40;;;;;;5055456;28;20518;-88
2022/05/10 04:48:53;;;;;;;2.10;2.00;;;21.80;51.40;;;;;;5055377;28;20630;-88
2022/05/10 04:51:19;;;;;;;2.47;1.80;;;21.80;51.40;;;;;;5054336;28;20577;-88
2022/05/10 04:53:45;;;;;;;1.70;1.60;;;21.80;51.40;;;;;;5054356;28;20668;-88
2022/05/10 04:56:11;;;;;;;1.70;1.60;;;21.80;51.40;;;;;;5054605;28;20175;-88
2022/05/10 04:58:37;;;;;;;1.67;1.57;;;21.80;51.40;;;;;;5054620;28;20482;-88
2022/05/10 05:01:08;;;;;;;1.90;1.80;;;21.80;51.30;;;;;;5054164;28;20574;-88
2022/05/10 05:03:34;;;;;;;2.10;1.90;;;21.80;51.30;;;;;;5053517;28;20273;-88
2022/05/10 05:06:01;;;;;;;2.10;1.90;;;21.80;51.30;;;;;;5053389;28;20226;-88
2022/05/10 05:08:27;;;;;;;2.80;1.77;;;21.80;51.30;;;;;;5071670;28;20480;-88
2022/05/10 05:10:54;;;;;;;1.70;1.60;;;21.80;51.30;;;;;;5052233;28;20471;-88
2022/05/10 05:13:20;;;;;;;1.87;1.77;;;21.80;51.30;;;;;;5052772;28;20285;-88
2022/05/10 05:15:46;;;;;;;2.13;1.93;;;21.80;51.30;;;;;;5070013;28;20524;-88
2022/05/10 05:18:12;;;;;;;1.83;1.73;;;21.80;51.20;;;;;;5052667;28;20211;-88
2022/05/10 05:20:40;;;;;;;1.83;1.73;;;21.80;51.20;;;;;;5069365;28;20308;-88
2022/05/10 05:23:08;;;;;;;2.67;1.87;;;21.80;51.20;;;;;;5053584;28;20245;-88
2022/05/10 05:25:39;;;;;;;2.13;1.80;;;21.80;51.20;;;;;;5054835;28;20368;-88
2022/05/10 05:28:06;;;;;;;1.70;1.60;;;21.80;51.20;;;;;;5070545;28;20241;-88
2022/05/10 05:30:32;;;;;;;1.87;1.77;;;21.90;51.20;;;;;;5054434;28;20217;-88
2022/05/10 05:32:58;;;;;;;1.97;1.80;;;21.90;51.20;;;;;;5054048;28;20290;-88
2022/05/10 05:35:25;;;;;;;2.53;2.10;;;21.90;51.20;;;;;;5052886;28;20182;-88
2022/05/10 05:37:54;;;;;;;1.80;1.70;;;21.90;51.20;;;;;;5070239;28;20179;-88
2022/05/10 05:40:20;;;;;;;1.90;1.80;;;21.90;51.20;;;;;;5052478;28;20182;-89
2022/05/10 05:42:46;;;;;;;2.40;1.70;;;21.90;51.20;;;;;;5051696;28;20736;-88
2022/05/10 05:45:15;;;;;;;3.17;1.90;;;21.90;51.20;;;;;;5052860;28;20178;-88
2022/05/10 05:47:41;;;;;;;2.17;1.97;;;21.90;51.20;;;;;;5053461;28;20372;-88
2022/05/10 05:50:08;;;;;;;2.13;1.93;;;21.90;51.20;;;;;;5070112;28;20176;-88
2022/05/10 05:52:34;;;;;;;2.40;1.90;;;21.90;51.20;;;;;;5054146;28;20183;-88
2022/05/10 05:55:01;;;;;;;2.03;1.90;;;22.00;51.20;;;;;;5052744;28;20654;-88
2022/05/10 05:57:26;;;;;;;1.97;1.77;;;21.90;51.20;;;;;;5070866;28;20271;-88
2022/05/10 05:59:54;;;;;;;1.87;1.70;;;22.00;51.20;;;;;;5053708;28;20183;-88
2022/05/10 06:02:21;;;;;;;2.30;2.10;;;22.00;51.20;;;;;;5054836;28;20175;-88
2022/05/10 06:04:47;;;;;;;2.37;2.07;;;22.00;51.20;;;;;;5054284;28;20339;-88
2022/05/10 06:07:13;;;;;;;2.77;1.93;;;22.00;51.20;;;;;;5055129;28;20175;-88
2022/05/10 06:09:41;;;;;;;2.20;2.00;;;22.00;51.10;;;;;;5053834;28;20272;-88
2022/05/10 06:12:10;;;;;;;3.33;2.20;;;22.10;51.10;;;;;;5069909;28;20183;-88
2022/05/10 06:14:37;;;;;;;2.47;2.00;;;22.10;51.10;;;;;;5054828;28;20183;-89
2022/05/10 06:17:04;;;;;;;2.20;2.00;;;22.10;51.10;;;;;;5055249;28;20405;-91
2022/05/10 06:19:30;;;;;;;2.00;1.90;;;22.10;51.00;;;;;;5054181;28;20177;-91
2022/05/10 06:21:57;;;;;;;2.77;1.90;;;22.20;51.30;;;;;;5051597;28;20177;-91
2022/05/10 06:24:24;;;;;;;3.77;1.97;;;22.30;50.80;;;;;;5050727;28;20175;-91
2022/05/10 06:26:50;;;;;;;2.27;2.07;;;22.30;50.70;;;;;;5051715;28;20270;-90
2022/05/10 06:29:16;;;;;;;3.10;2.23;;;22.30;50.70;;;;;;5052012;28;20307;-90
2022/05/10 06:31:46;;;;;;;3.10;1.90;;;22.40;50.60;;;;;;5051711;28;20183;-91
2022/05/10 06:34:13;;;;;;;2.30;2.10;;;22.40;50.60;;;;;;5050072;28;20202;-89
2022/05/10 06:36:39;;;;;;;2.40;2.20;;;22.50;51.10;;;;;;5052410;28;20186;-90
2022/05/10 06:39:05;;;;;;;3.70;2.10;;;22.50;50.60;;;;;;5068970;28;20175;-90
2022/05/10 06:41:32;;;;;;;2.53;2.30;;;22.50;50.60;;;;;;5053360;28;20182;-90
2022/05/10 06:43:59;;;;;;;3.20;2.47;;;22.60;50.50;;;;;;5051733;28;20645;-90
2022/05/10 06:46:26;;;;;;;3.80;2.43;;;22.60;50.50;;;;;;5052108;28;20630;-91
2022/05/10 06:48:52;;;;;;;2.30;2.10;;;22.60;50.50;;;;;;5069564;28;20266;-90
2022/05/10 06:51:21;;;;;;;3.40;2.10;;;22.60;50.50;;;;;;5052933;28;20173;-89
2022/05/10 06:53:47;;;;;;;2.03;1.93;;;22.70;50.50;;;;;;5052515;28;20276;-89
2022/05/10 06:56:14;;;;;;;2.73;2.23;;;22.70;50.50;;;;;;5052084;28;20272;-89
2022/05/10 06:58:40;;;;;;;2.97;2.30;;;22.70;50.40;;;;;;5051318;28;20180;-89
2022/05/10 07:01:11;;;;;;;2.63;2.30;;;22.80;50.40;;;;;;5068196;28;20455;-89
2022/05/10 07:03:37;;;;;;;3.63;2.40;;;22.80;50.70;;;;;;5052026;28;20175;-90
2022/05/10 07:06:06;;;;;;;3.07;2.60;;;22.90;50.20;;;;;;5052868;28;20186;-89
2022/05/10 07:08:33;;;;;;;3.83;2.43;;;23.00;50.00;;;;;;5052797;28;20230;-89
2022/05/10 07:10:59;;;;;;;2.97;2.30;;;23.20;49.70;;;;;;5053130;28;20167;-89
2022/05/10 07:13:27;;;;;;;3.30;2.20;;;23.30;49.60;;;;;;5053411;28;20194;-89
2022/05/10 07:15:52;;;;;;;2.57;2.20;;;23.40;49.60;;;;;;5051970;28;20179;-89
2022/05/10 07:18:19;;;;;;;4.83;2.50;;;23.60;49.30;;;;;;5050783;28;20248;-89
2022/05/10 07:20:46;;;;;;;3.17;2.33;;;23.70;49.10;;;;;;5068366;28;20500;-89
2022/05/10 07:23:13;;;;;;;2.73;2.43;;;23.80;48.80;;;;;;5051805;28;20443;-89
2022/05/10 07:25:39;;;;;;;3.43;2.47;;;23.70;48.90;;;;;;5051673;28;20191;-89
2022/05/10 07:28:06;;;;;;;2.43;2.23;;;23.60;49.10;;;;;;5068082;28;20202;-90
2022/05/10 07:30:34;;;;;;;2.50;2.30;;;23.70;49.00;;;;;;5051432;28;20178;-88
2022/05/10 07:33:00;;;;;;;2.40;2.20;;;24.00;48.80;;;;;;5051284;28;20172;-88
2022/05/10 07:38:13;;;;;;;2.50;2.20;;;24.20;48.50;;;;;;5069473;28;20669;-88
2022/05/10 07:40:41;;;;;;;2.53;2.27;;;24.30;48.30;;;;;;5051245;28;20267;-89
2022/05/10 07:43:07;;;;;;;2.40;2.20;;;24.40;48.30;;;;;;5051519;28;20182;-89
2022/05/10 07:45:34;;;;;;;2.70;2.50;;;24.40;48.30;;;;;;5051045;28;20565;-89
2022/05/10 07:47:59;;;;;;;2.53;2.33;;;24.50;48.10;;;;;;5051640;28;20313;-89
2022/05/10 07:50:26;;;;;;;3.63;2.40;;;24.60;48.00;;;;;;5051465;28;20505;-88
2022/05/10 07:52:52;;;;;;;2.50;2.30;;;24.70;47.90;;;;;;5050109;28;20248;-89
2022/05/10 07:55:18;;;;;;;2.77;2.57;;;24.80;47.80;;;;;;5051135;28;20172;-90
2022/05/10 07:57:44;;;;;;;3.10;2.20;;;24.90;47.70;;;;;;5051844;28;20423;-89
2022/05/10 08:00:13;;;;;;;2.80;2.27;;;25.00;47.60;;;;;;5051144;28;20234;-89
2022/05/10 08:02:43;;;;;;;2.85;2.42;;;25.10;47.60;;;;;;5054855;28;20176;-89
2022/05/10 08:05:29;;;;;;;4.00;2.50;;;25.20;47.50;;;;;;5068791;28;20400;-90
2022/05/10 08:07:55;;;;;;;2.88;2.58;;;25.30;47.50;;;;;;5049331;28;20211;-89
2022/05/10 08:10:20;;;;;;;2.72;2.50;;;25.40;47.30;;;;;;5050693;28;20248;-90
2022/05/10 08:12:46;;;;;;;3.05;2.75;;;25.50;47.70;;;;;;5050025;28;20266;-86
2022/05/10 08:15:12;;;;;;;2.88;2.53;;;25.60;47.20;;;;;;5052083;28;20451;-86
2022/05/10 08:17:39;;;;;;;3.78;2.70;;;25.60;47.10;;;;;;5049143;28;20175;-87
2022/05/10 08:20:06;;;;;;;2.53;2.33;;;25.70;47.10;;;;;;5050282;28;20472;-86
2022/05/10 08:22:32;;;;;;;3.03;2.40;;;25.80;47.00;;;;;;5053791;28;20748;-87
2022/05/10 08:24:58;;;;;;;2.67;2.45;;;25.90;46.90;;;;;;5054857;28;20172;-86
2022/05/10 08:27:24;;;;;;;2.90;2.38;;;26.00;46.80;;;;;;5074607;28;20178;-87
2022/05/10 08:29:50;;;;;;;4.55;2.90;;;26.20;46.70;;;;;;5058137;28;20198;-87
2022/05/10 08:32:16;;;;;;;3.33;2.80;;;26.30;46.60;;;;;;5051077;28;20175;-87
2022/05/10 08:34:42;;;;;;;5.63;2.42;;;26.40;46.50;;;;;;5050341;28;20198;-86
2022/05/10 08:37:08;;;;;;;2.72;2.53;;;26.50;46.40;;;;;;5066994;28;20240;-87
2022/05/10 08:39:34;;;;;;;2.70;2.50;;;26.50;46.30;;;;;;5050205;28;20223;-87
2022/05/10 08:42:07;;;;;;;2.90;2.60;;;26.40;46.30;;;;;;5067591;28;20324;-87
2022/05/10 08:44:36;;;;;;;2.80;2.60;;;26.40;46.40;;;;;;5050623;28;20172;-86
2022/05/10 08:47:06;;;;;;;3.55;2.60;;;26.20;46.60;;;;;;5049723;28;20178;-86
2022/05/10 08:49:39;;;;;;;2.88;2.45;;;25.90;46.80;;;;;;5049920;28;20203;-86
2022/05/10 08:52:08;;;;;;;2.88;2.53;;;25.90;47.00;;;;;;5050378;28;20471;-86
2022/05/10 08:54:38;;;;;;;2.83;2.30;;;26.00;46.90;;;;;;5050221;28;20206;-86
2022/05/10 08:57:11;;;;;;;2.58;2.38;;;26.20;46.70;;;;;;5049581;28;20175;-86
2022/05/10 08:59:51;;;;;;;3.08;2.55;;;26.50;46.50;;;;;;5049797;28;20190;-87
2022/05/10 09:02:29;;;;;;;4.28;2.50;;;26.80;46.30;;;;;;5051541;28;20435;-87
2022/05/10 09:05:28;;;;;;;2.88;2.67;;;27.00;46.10;;;;;;5050534;28;20191;-89
2022/05/10 09:08:03;;;;;;;3.35;2.60;;;26.90;46.00;;;;;;5068197;28;20238;-88
2022/05/10 09:10:41;;;;;;;2.45;2.25;;;27.10;46.00;;;;;;5051349;28;20167;-88
2022/05/10 09:13:11;;;;;;;2.63;2.42;;;26.90;46.00;;;;;;5050246;28;20187;-86
2022/05/10 09:15:40;;;;;;;2.67;2.47;;;26.80;46.10;;;;;;5048908;28;20300;-87
2022/05/10 09:18:49;;;;;;;3.75;2.70;;;26.60;46.30;;;;;;5049199;28;20578;-87
2022/05/10 09:21:33;;;;;;;2.92;2.63;;;26.30;46.60;;;;;;5054852;28;20193;-88
2022/05/10 09:24:21;;;;;;;2.80;2.60;;;26.00;47.00;;;;;;5067630;28;20512;-88
2022/05/10 09:26:50;;;;;;;3.05;2.60;;;25.80;47.30;;;;;;5048597;28;20558;-87
2022/05/10 09:29:37;;;;;;;2.70;2.50;;;25.70;47.90;;;;;;5067010;28;20214;-86
2022/05/10 09:35:09;;;;;;;2.15;2.00;;;25.60;47.70;;;;;;5067402;28;20236;-88
2022/05/10 09:37:45;;;;;;;2.70;2.50;;;25.50;47.90;;;;;;5049920;28;20408;-87
2022/05/10 09:40:32;;;;;;;2.50;2.30;;;25.40;48.00;;;;;;5048459;28;20175;-87
2022/05/10 09:43:36;;;;;;;2.97;2.38;;;25.40;48.10;;;;;;5049551;28;20168;-88
2022/05/10 09:46:18;;;;;;;2.65;2.45;;;25.50;48.20;;;;;;4998643;28;20203;-87
2022/05/10 09:48:44;;;;;;;2.65;2.33;;;25.50;48.20;;;;;;5049591;28;20199;-87
2022/05/10 09:51:26;;;;;;;2.42;2.22;;;25.50;48.20;;;;;;5050086;28;20180;-87
2022/05/10 09:53:53;;;;;;;2.40;2.10;;;25.60;48.20;;;;;;5049863;28;20443;-87
2022/05/10 09:56:32;;;;;;;2.55;2.35;;;25.60;48.30;;;;;;5051389;28;20457;-90
2022/05/10 09:59:23;;;;;;;2.53;2.33;;;25.60;48.30;;;;;;5054090;28;20566;-88
2022/05/10 10:01:54;;;;;;;2.47;2.28;;;25.60;48.40;;;;;;5050990;28;20187;-89
2022/05/10 10:04:26;;;;;;;2.70;2.50;;;25.60;48.40;;;;;;5050209;28;20680;-88
2022/05/10 10:07:24;;;;;;;2.60;2.40;;;25.60;48.40;;;;;;5050568;28;20175;-88
2022/05/10 10:09:53;;;;;;;2.30;2.10;;;25.60;48.40;;;;;;5053909;28;20630;-88
2022/05/10 10:12:32;;;;;;;2.38;2.08;;;25.70;48.50;;;;;;5052902;28;20333;-89
2022/05/10 10:14:59;;;;;;;2.60;2.40;;;25.70;48.50;;;;;;5052169;28;20181;-89
2022/05/10 10:17:36;;;;;;;2.20;2.10;;;25.70;48.90;;;;;;5051963;28;20164;-89
2022/05/10 10:20:21;;;;;;;2.60;2.40;;;25.70;48.50;;;;;;5054022;28;20530;-88
2022/05/10 10:22:52;;;;;;;2.53;2.33;;;25.70;48.60;;;;;;5053276;28;20183;-89
2022/05/10 10:25:46;;;;;;;2.42;2.20;;;25.70;48.50;;;;;;5053171;28;20175;-90
2022/05/10 10:28:21;;;;;;;2.60;2.30;;;25.80;49.10;;;;;;5053341;28;20207;-91
2022/05/10 10:30:56;;;;;;;2.35;2.15;;;25.80;48.60;;;;;;5050434;28;20503;-91
2022/05/10 10:33:41;;;;;;;3.28;2.60;;;25.80;48.60;;;;;;5069270;28;20447;-90
2022/05/10 10:36:18;;;;;;;2.78;2.17;;;25.90;48.70;;;;;;5051925;28;20172;-91
2022/05/10 10:38:58;;;;;;;2.72;2.50;;;25.90;48.70;;;;;;5052517;28;20181;-89
2022/05/10 10:41:46;;;;;;;3.13;2.37;;;25.90;48.70;;;;;;5051193;28;20435;-89
2022/05/10 10:44:27;;;;;;;3.27;2.10;;;25.90;48.80;;;;;;5069405;28;20232;-87
2022/05/10 10:47:18;;;;;;;2.30;2.10;;;25.90;48.80;;;;;;5050403;28;20176;-88
2022/05/10 10:50:15;;;;;;;2.80;2.20;;;25.90;48.80;;;;;;5050566;28;20215;-87
2022/05/10 10:52:41;;;;;;;2.33;2.13;;;25.90;48.80;;;;;;5013694;28;20179;-87
2022/05/10 10:55:08;;;;;;;2.83;2.10;;;25.90;48.80;;;;;;5068785;28;20164;-88
2022/05/10 10:57:49;;;;;;;2.33;2.13;;;25.90;48.90;;;;;;5052882;28;20551;-86
2022/05/10 11:00:21;;;;;;;2.43;2.23;;;25.90;49.00;;;;;;5051553;28;20167;-87
2022/05/10 11:02:55;;;;;;;3.83;2.40;;;25.90;49.10;;;;;;5049580;28;20179;-87
2022/05/10 11:05:44;;;;;;;2.40;2.20;;;25.90;49.20;;;;;;5050313;28;20198;-88
2022/05/10 11:08:28;;;;;;;2.80;2.13;;;25.90;49.20;;;;;;5050046;28;20198;-88
2022/05/10 11:11:15;;;;;;;3.17;2.43;;;25.90;49.20;;;;;;5050288;28;20266;-88
2022/05/10 11:14:05;;;;;;;3.27;2.40;;;25.90;49.30;;;;;;5048982;28;20191;-90
2022/05/10 11:16:52;;;;;;;2.50;2.20;;;25.90;49.30;;;;;;5049984;28;20252;-87
2022/05/10 11:19:33;;;;;;;2.60;2.40;;;26.00;49.40;;;;;;5047356;28;20459;-88
2022/05/10 11:22:37;;;;;;;2.77;2.40;;;26.00;49.40;;;;;;5048880;28;20172;-87
2022/05/10 11:25:41;;;;;;;2.50;2.30;;;26.00;49.40;;;;;;5050167;28;20453;-88
2022/05/10 11:28:25;;;;;;;3.70;2.40;;;26.00;49.40;;;;;;5012456;28;20378;-87
2022/05/10 11:31:05;;;;;;;2.43;2.23;;;26.10;49.50;;;;;;5049400;28;20207;-87
2022/05/10 11:34:04;;;;;;;3.73;2.30;;;26.10;49.50;;;;;;5066238;28;20160;-88
2022/05/10 11:36:42;;;;;;;3.07;2.30;;;26.10;49.50;;;;;;5049913;28;20203;-88
2022/05/10 11:39:23;;;;;;;2.33;2.13;;;26.10;49.50;;;;;;5048539;28;20224;-88
2022/05/10 11:42:10;;;;;;;2.40;2.20;;;26.10;49.60;;;;;;5048303;28;20175;-88
2022/05/10 11:44:58;;;;;;;2.43;2.23;;;26.10;49.70;;;;;;5067708;28;20237;-87
2022/05/10 11:47:33;;;;;;;2.27;2.13;;;26.10;49.70;;;;;;5048504;28;20266;-87
2022/05/10 11:50:20;;;;;;;2.27;2.07;;;26.10;49.80;;;;;;5050002;28;20203;-87
2022/05/10 11:53:03;;;;;;;2.37;2.17;;;26.10;49.80;;;;;;5068147;28;20167;-87
2022/05/10 11:55:36;;;;;;;3.07;2.30;;;26.10;49.80;;;;;;5048959;28;20168;-87
2022/05/10 11:58:07;;;;;;;2.20;2.00;;;26.10;49.90;;;;;;5048337;28;20183;-88
2022/05/10 12:00:32;;;;;;;2.63;2.20;;;26.10;49.90;;;;;;5049280;28;20176;-87
2022/05/10 12:03:08;;;;;;;2.23;2.03;;;26.10;49.90;;;;;;5049822;28;20178;-87
2022/05/10 12:05:39;;;;;;;2.37;2.13;;;26.10;49.90;;;;;;5048592;28;20536;-88
2022/05/10 12:08:25;;;;;;;3.00;2.30;;;26.10;50.00;;;;;;5048077;28;20229;-87
2022/05/10 12:10:51;;;;;;;2.50;2.30;;;26.10;50.00;;;;;;5048537;28;20199;-89
2022/05/10 12:22:11;;;;;;;3.80;2.20;;;26.20;50.00;;;;;;5066579;28;20178;-89
2022/05/10 12:24:44;;;;;;;2.67;2.23;;;26.20;50.00;;;;;;5067024;28;20182;-90
2022/05/10 12:27:10;;;;;;;2.13;2.03;;;26.20;50.00;;;;;;5047724;28;20562;-89
2022/05/10 12:29:39;;;;;;;2.30;2.00;;;26.20;50.00;;;;;;5048633;28;20203;-88
2022/05/10 12:32:29;;;;;;;2.27;2.07;;;26.20;50.00;;;;;;5048988;28;20220;-89
2022/05/10 12:34:56;;;;;;;2.60;2.40;;;26.20;50.00;;;;;;5048306;28;20172;-89
2022/05/10 12:37:36;;;;;;;2.13;1.97;;;26.20;50.10;;;;;;5048767;28;20228;-90
2022/05/10 12:40:10;;;;;;;2.37;2.17;;;26.20;50.10;;;;;;5047778;28;20168;-89
2022/05/10 12:43:02;;;;;;;2.37;2.17;;;26.20;50.20;;;;;;5047451;28;20715;-89
2022/05/10 12:45:46;;;;;;;2.80;2.20;;;26.20;50.20;;;;;;5046743;28;20446;-89
2022/05/10 12:48:39;;;;;;;2.37;2.17;;;26.20;50.20;;;;;;5047649;28;20339;-89
2022/05/10 12:51:26;;;;;;;2.57;2.30;;;26.20;50.20;;;;;;5047168;28;20236;-89
2022/05/10 12:54:01;;;;;;;3.03;2.10;;;26.20;50.20;;;;;;5047136;28;20167;-89
2022/05/10 12:56:36;;;;;;;2.20;1.97;;;26.20;50.20;;;;;;5049887;28;20163;-91
2022/05/10 12:59:16;;;;;;;2.40;2.20;;;26.20;50.30;;;;;;5049086;28;20278;-91
2022/05/10 13:01:42;;;;;;;2.37;2.17;;;26.20;50.30;;;;;;5048701;28;20232;-91
2022/05/10 13:04:15;;;;;;;2.07;1.73;;;26.30;50.30;;;;;;5065907;28;20281;-93
2022/05/10 13:06:53;;;;;;;2.40;2.20;;;26.30;50.30;;;;;;5047734;28;20459;-91
2022/05/10 13:09:25;;;;;;;2.50;2.30;;;26.30;50.30;;;;;;5046862;28;20360;-92
2022/05/10 13:11:57;;;;;;;1.93;1.83;;;26.30;50.30;;;;;;5048081;28;20502;-91
2022/05/10 13:14:23;;;;;;;3.40;2.50;;;26.30;50.30;;;;;;5048751;28;20168;-93
2022/05/10 13:16:52;;;;;;;2.10;1.97;;;26.30;50.30;;;;;;5047770;28;20325;-90
2022/05/10 13:19:21;;;;;;;2.33;2.13;;;26.40;50.30;;;;;;5046783;28;20592;-92
2022/05/10 13:21:48;;;;;;;3.30;1.93;;;26.40;50.30;;;;;;5046609;28;20274;-90
2022/05/10 13:24:19;;;;;;;2.27;2.00;;;26.40;50.30;;;;;;5048704;28;20179;-90
2022/05/10 13:26:53;;;;;;;2.40;2.20;;;26.40;50.30;;;;;;5048168;28;20275;-92
2022/05/10 13:29:20;;;;;;;2.40;2.07;;;26.40;50.30;;;;;;5049129;28;20207;-89
2022/05/10 13:31:46;;;;;;;2.53;2.00;;;26.40;50.70;;;;;;5047728;28;20178;-90